Time;durP1;ratioP1;P1;durP2;ratioP2;P2;SDS_P1;SDS_P2;PMS_P1;PMS_P2;Temp;Humidity;BMP_temperature;BMP_pressure;BME280_temperature;BME280_humidity;BME280_pressure;Samples;Min_cycle;Max_cycle;Signal;HPM_P1;HPM_P2
2021/08/20 00:02:08;;;;;;;;;;;19.60;99.90;;;;;;5096914;28;19916;-61
2021/08/20 00:04:34;;;;;;;;;;;19.50;99.90;;;;;;5096288;28;19904;-59
2021/08/20 00:06:59;;;;;;;;;;;19.50;99.90;;;;;;5096254;28;19904;-61
2021/08/20 00:09:26;;;;;;;;;;;19.50;99.90;;;;;;5096505;28;20011;-61
2021/08/20 00:11:51;;;;;;;;;;;19.50;99.90;;;;;;5096414;28;19904;-60
2021/08/20 00:14:17;;;;;;;;;;;19.50;99.90;;;;;;5096109;28;19904;-59
2021/08/20 00:16:43;;;;;;;;;;;19.40;99.90;;;;;;5096289;28;19904;-61
2021/08/20 00:19:08;;;;;;;;;;;19.40;99.90;;;;;;5095787;28;19923;-58
2021/08/20 00:21:34;;;;;;;;;;;19.40;99.90;;;;;;5096133;28;20253;-61
2021/08/20 00:24:00;;;;;;;;;;;19.40;99.90;;;;;;5096008;28;19904;-61
2021/08/20 00:26:25;;;;;;;;;;;19.40;99.90;;;;;;5096204;28;20358;-61
2021/08/20 00:28:51;;;;;;;;;;;19.40;99.90;;;;;;5096093;28;19904;-61
2021/08/20 00:31:17;;;;;;;;;;;19.40;99.90;;;;;;5096036;28;19904;-61
2021/08/20 00:33:42;;;;;;;;;;;19.40;99.90;;;;;;5095784;28;20003;-61
2021/08/20 00:36:08;;;;;;;;;;;19.40;99.90;;;;;;5095597;28;19908;-61
2021/08/20 00:38:37;;;;;;;;;;;19.40;99.90;;;;;;5095748;28;20280;-56
2021/08/20 00:41:04;;;;;;;;;;;19.40;99.90;;;;;;5096051;28;19937;-59
2021/08/20 00:43:29;;;;;;;;;;;19.40;99.90;;;;;;5095880;28;19907;-59
2021/08/20 00:45:56;;;;;;;;;;;19.40;99.90;;;;;;5095682;28;19904;-60
2021/08/20 00:48:21;;;;;;;;;;;19.30;99.90;;;;;;5095783;28;19912;-61
2021/08/20 00:50:48;;;;;;;;;;;19.30;99.90;;;;;;5096065;28;20280;-61
2021/08/20 00:53:13;;;;;;;;;;;19.30;99.90;;;;;;5096046;28;19904;-62
2021/08/20 00:55:39;;;;;;;;;;;19.30;99.90;;;;;;5095472;28;19904;-62
2021/08/20 00:58:05;;;;;;;;;;;19.30;99.90;;;;;;5095910;28;19915;-61
2021/08/20 01:00:30;;;;;;;;;;;19.30;99.90;;;;;;5095687;28;20257;-61
2021/08/20 01:02:56;;;;;;;;;;;19.30;99.90;;;;;;5095306;28;19950;-62
2021/08/20 01:05:22;;;;;;;;;;;19.20;99.90;;;;;;5095323;28;19904;-62
2021/08/20 01:07:47;;;;;;;;;;;19.30;99.90;;;;;;5095299;28;19908;-61
2021/08/20 01:10:15;;;;;;;;;;;19.30;99.90;;;;;;5094581;28;19927;-61
2021/08/20 01:12:41;;;;;;;;;;;19.30;99.90;;;;;;5095154;28;20003;-61
2021/08/20 01:15:07;;;;;;;;;;;19.20;99.90;;;;;;5095382;28;19940;-61
2021/08/20 01:17:32;;;;;;;;;;;19.20;99.90;;;;;;5095337;28;19939;-61
2021/08/20 01:20:00;;;;;;;;;;;19.20;99.90;;;;;;5095320;28;19908;-60
2021/08/20 01:22:25;;;;;;;;;;;19.20;99.90;;;;;;5095234;28;19904;-61
2021/08/20 01:24:59;;;;;;;;;;;19.20;99.90;;;;;;5095112;28;19925;-61
2021/08/20 01:27:24;;;;;;;;;;;19.20;99.90;;;;;;5095819;28;19904;-61
2021/08/20 01:29:50;;;;;;;;;;;19.10;99.90;;;;;;5095011;28;20268;-61
2021/08/20 01:32:15;;;;;;;;;;;19.10;99.90;;;;;;5094973;28;20349;-61
2021/08/20 01:34:41;;;;;;;;;;;19.10;99.90;;;;;;5095459;28;19991;-61
2021/08/20 01:37:06;;;;;;;;;;;19.20;99.90;;;;;;5094459;28;19915;-59
2021/08/20 01:39:32;;;;;;;;;;;19.10;99.90;;;;;;5094390;28;20280;-60
2021/08/20 01:41:57;;;;;;;;;;;19.20;99.90;;;;;;5094536;28;19904;-60
2021/08/20 01:44:23;;;;;;;;;;;19.20;99.90;;;;;;5094519;28;19973;-61
2021/08/20 01:46:48;;;;;;;;;;;19.10;99.90;;;;;;5094996;28;20344;-61
2021/08/20 01:49:14;;;;;;;;;;;19.20;99.90;;;;;;5094360;28;19904;-62
2021/08/20 01:51:39;;;;;;;;;;;19.10;99.90;;;;;;5094416;28;19935;-61
2021/08/20 01:54:05;;;;;;;;;;;19.10;99.90;;;;;;5094303;28;20271;-61
2021/08/20 01:56:32;;;;;;;;;;;19.00;99.90;;;;;;5094366;28;19904;-61
2021/08/20 01:58:58;;;;;;;;;;;19.00;99.90;;;;;;5094158;28;19914;-60
2021/08/20 02:01:24;;;;;;;;;;;19.00;99.90;;;;;;5094369;28;19911;-62
2021/08/20 02:03:50;;;;;;;;;;;19.10;99.90;;;;;;5094188;28;19950;-61
2021/08/20 02:06:15;;;;;;;;;;;19.00;99.90;;;;;;5094171;28;19997;-61
2021/08/20 02:08:41;;;;;;;;;;;19.00;99.90;;;;;;5094271;28;20325;-61
2021/08/20 02:11:07;;;;;;;;;;;19.00;99.90;;;;;;5094065;28;19904;-62
2021/08/20 02:13:32;;;;;;;;;;;19.00;99.90;;;;;;5094132;28;19992;-62
2021/08/20 02:15:58;;;;;;;;;;;19.00;99.90;;;;;;5094427;28;19908;-62
2021/08/20 02:18:24;;;;;;;;;;;18.90;99.90;;;;;;5094085;28;20257;-62
2021/08/20 02:20:49;;;;;;;;;;;18.90;99.90;;;;;;5093541;28;20010;-62
2021/08/20 02:23:15;;;;;;;;;;;18.90;99.90;;;;;;5093305;28;20309;-63
2021/08/20 02:25:41;;;;;;;;;;;18.90;99.90;;;;;;5093847;28;19995;-61
2021/08/20 02:28:06;;;;;;;;;;;18.90;99.90;;;;;;5092624;28;19999;-62
2021/08/20 02:30:32;;;;;;;;;;;18.90;99.90;;;;;;5093605;28;19904;-62
2021/08/20 02:32:58;;;;;;;;;;;18.90;99.90;;;;;;5093475;28;20309;-62
2021/08/20 02:35:24;;;;;;;;;;;18.90;99.90;;;;;;5094314;28;19904;-61
2021/08/20 02:37:50;;;;;;;;;;;18.90;99.90;;;;;;5096191;28;19953;-60
2021/08/20 02:40:18;;;;;;;;;;;18.90;99.90;;;;;;5093954;28;19904;-60
2021/08/20 02:42:44;;;;;;;;;;;18.90;99.90;;;;;;5093693;28;19908;-59
2021/08/20 02:45:10;;;;;;;;;;;18.90;99.90;;;;;;5093334;28;19904;-61
2021/08/20 02:47:35;;;;;;;;;;;18.90;99.90;;;;;;5093569;28;19904;-61
2021/08/20 02:50:01;;;;;;;;;;;18.90;99.90;;;;;;5093236;28;19986;-60
2021/08/20 02:52:26;;;;;;;;;;;18.80;99.90;;;;;;5092987;28;19954;-59
2021/08/20 02:54:52;;;;;;;;;;;18.80;99.90;;;;;;5091815;28;19951;-60
2021/08/20 02:57:17;;;;;;;;;;;18.80;99.90;;;;;;5093149;28;19995;-60
2021/08/20 02:59:43;;;;;;;;;;;18.80;99.90;;;;;;5092941;28;19908;-61
2021/08/20 03:02:08;;;;;;;;;;;18.90;99.90;;;;;;5093402;28;20017;-61
2021/08/20 03:04:34;;;;;;;;;;;18.90;99.90;;;;;;5093218;28;20048;-61
2021/08/20 03:06:59;;;;;;;;;;;18.90;99.90;;;;;;5093160;28;19904;-61
2021/08/20 03:09:25;;;;;;;;;;;18.90;99.90;;;;;;5093355;28;20365;-60
2021/08/20 03:11:50;;;;;;;;;;;18.80;99.90;;;;;;5093121;28;20347;-61
2021/08/20 03:14:16;;;;;;;;;;;18.80;99.90;;;;;;5093506;28;19927;-61
2021/08/20 03:16:42;;;;;;;;;;;18.80;99.90;;;;;;5093044;28;19994;-61
2021/08/20 03:19:08;;;;;;;;;;;18.80;99.90;;;;;;5092968;28;20013;-61
2021/08/20 03:21:33;;;;;;;;;;;18.80;99.90;;;;;;5093112;28;20258;-62
2021/08/20 03:23:59;;;;;;;;;;;18.80;99.90;;;;;;5092945;28;20003;-61
2021/08/20 03:26:25;;;;;;;;;;;18.80;99.90;;;;;;5093777;28;19930;-61
2021/08/20 03:28:50;;;;;;;;;;;18.80;99.90;;;;;;5093148;28;20341;-61
2021/08/20 03:31:16;;;;;;;;;;;18.80;99.90;;;;;;5091502;28;19908;-60
2021/08/20 03:33:42;;;;;;;;;;;18.90;99.90;;;;;;5094718;28;20380;-61
2021/08/20 03:36:07;;;;;;;;;;;18.90;99.90;;;;;;5096681;28;19911;-61
2021/08/20 03:38:33;;;;;;;;;;;18.90;99.90;;;;;;5096857;28;19908;-61
2021/08/20 03:40:58;;;;;;;;;;;18.90;99.90;;;;;;5096888;28;19978;-60
2021/08/20 03:43:24;;;;;;;;;;;18.90;99.90;;;;;;5097180;28;19904;-61
2021/08/20 03:45:49;;;;;;;;;;;18.80;99.90;;;;;;5097062;28;20043;-60
2021/08/20 03:48:15;;;;;;;;;;;18.80;99.90;;;;;;5096630;28;19911;-62
2021/08/20 03:50:40;;;;;;;;;;;18.80;99.90;;;;;;5096583;28;19980;-62
2021/08/20 03:53:06;;;;;;;;;;;18.80;99.90;;;;;;5096737;28;20041;-64
2021/08/20 03:55:31;;;;;;;;;;;18.80;99.90;;;;;;5096661;28;19915;-62
2021/08/20 03:57:57;;;;;;;;;;;18.80;99.90;;;;;;5096405;28;19911;-62
2021/08/20 04:00:22;;;;;;;;;;;18.80;99.90;;;;;;5096645;28;20372;-62
2021/08/20 04:02:48;;;;;;;;;;;18.70;99.90;;;;;;5096501;28;20330;-62
2021/08/20 04:05:13;;;;;;;;;;;18.70;99.90;;;;;;5096305;28;19943;-62
2021/08/20 04:07:39;;;;;;;;;;;18.80;99.90;;;;;;5096367;28;19928;-62
2021/08/20 04:10:04;;;;;;;;;;;18.80;99.90;;;;;;5096249;28;20244;-61
2021/08/20 04:12:30;;;;;;;;;;;18.70;99.90;;;;;;5096278;28;19953;-62
2021/08/20 04:14:55;;;;;;;;;;;18.70;99.90;;;;;;5096211;28;19903;-62
2021/08/20 04:17:21;;;;;;;;;;;18.70;99.90;;;;;;5096605;28;20225;-62
2021/08/20 04:19:46;;;;;;;;;;;18.70;99.90;;;;;;5096316;28;19966;-62
2021/08/20 04:22:12;;;;;;;;;;;18.70;99.90;;;;;;5095696;28;19911;-61
2021/08/20 04:24:40;;;;;;;;;;;18.70;99.90;;;;;;5095618;28;19904;-62
2021/08/20 04:27:06;;;;;;;;;;;18.70;99.90;;;;;;5095916;28;20327;-62
2021/08/20 04:29:31;;;;;;;;;;;18.70;99.90;;;;;;5095733;28;20003;-61
2021/08/20 04:31:57;;;;;;;;;;;18.70;99.90;;;;;;5095689;28;20267;-61
2021/08/20 04:34:23;;;;;;;;;;;18.70;99.90;;;;;;5095578;28;19904;-61
2021/08/20 04:36:49;;;;;;;;;;;18.70;99.90;;;;;;5095798;28;19957;-61
2021/08/20 04:39:14;;;;;;;;;;;18.60;99.90;;;;;;5095493;28;19916;-61
2021/08/20 04:41:40;;;;;;;;;;;18.70;99.90;;;;;;5095371;28;20321;-61
2021/08/20 04:44:06;;;;;;;;;;;18.60;99.90;;;;;;5094766;28;19904;-61
2021/08/20 04:46:31;;;;;;;;;;;18.60;99.90;;;;;;5095206;28;19904;-61
2021/08/20 04:48:57;;;;;;;;;;;18.60;99.90;;;;;;5095484;28;19915;-61
2021/08/20 04:51:22;;;;;;;;;;;18.60;99.90;;;;;;5094959;28;19942;-61
2021/08/20 04:53:49;;;;;;;;;;;18.60;99.90;;;;;;5093647;28;19908;-61
2021/08/20 04:56:14;;;;;;;;;;;18.60;99.90;;;;;;5095198;28;19904;-62
2021/08/20 04:58:40;;;;;;;;;;;18.70;99.90;;;;;;5095271;28;19915;-62
2021/08/20 05:01:05;;;;;;;;;;;18.70;99.90;;;;;;5095314;28;20440;-62
2021/08/20 05:03:31;;;;;;;;;;;18.70;99.90;;;;;;5094815;28;19911;-61
2021/08/20 05:05:57;;;;;;;;;;;18.70;99.90;;;;;;5095004;28;19910;-62
2021/08/20 05:08:22;;;;;;;;;;;18.70;99.90;;;;;;5095195;28;19911;-62
2021/08/20 05:10:48;;;;;;;;;;;18.70;99.90;;;;;;5094979;28;19904;-62
2021/08/20 05:13:13;;;;;;;;;;;18.70;99.90;;;;;;5095033;28;19904;-63
2021/08/20 05:15:39;;;;;;;;;;;18.70;99.90;;;;;;5094983;28;19912;-63
2021/08/20 05:18:04;;;;;;;;;;;18.70;99.90;;;;;;5094866;28;19904;-61
2021/08/20 05:20:30;;;;;;;;;;;18.70;99.90;;;;;;5097166;28;19904;-62
2021/08/20 05:22:56;;;;;;;;;;;18.70;99.90;;;;;;5096642;28;19911;-61
2021/08/20 05:25:22;;;;;;;;;;;18.70;99.90;;;;;;5094733;28;19904;-62
2021/08/20 05:27:48;;;;;;;;;;;18.70;99.90;;;;;;5095007;28;19988;-61
2021/08/20 05:30:14;;;;;;;;;;;18.70;99.90;;;;;;5095052;28;19911;-59
2021/08/20 05:32:40;;;;;;;;;;;18.70;99.90;;;;;;5095087;28;19904;-60
2021/08/20 05:35:06;;;;;;;;;;;18.80;99.90;;;;;;5094596;28;19904;-61
2021/08/20 05:37:32;;;;;;;;;;;18.90;99.90;;;;;;5094480;28;19950;-61
2021/08/20 05:39:57;;;;;;;;;;;18.90;99.90;;;;;;5094369;28;19911;-62
2021/08/20 05:42:23;;;;;;;;;;;18.90;99.90;;;;;;5094427;28;19904;-62
2021/08/20 05:44:48;;;;;;;;;;;19.00;99.90;;;;;;5094488;28;19918;-61
2021/08/20 05:47:14;;;;;;;;;;;19.00;99.90;;;;;;5093067;28;19904;-61
2021/08/20 05:49:40;;;;;;;;;;;18.90;99.90;;;;;;5094419;28;20327;-61
2021/08/20 05:52:05;;;;;;;;;;;18.90;99.90;;;;;;5094433;28;19994;-60
2021/08/20 05:54:31;;;;;;;;;;;18.90;99.90;;;;;;5094116;28;20381;-60
2021/08/20 05:56:57;;;;;;;;;;;18.90;99.90;;;;;;5094226;28;19931;-61
2021/08/20 05:59:24;;;;;;;;;;;19.00;99.90;;;;;;5094453;28;19920;-61
2021/08/20 06:01:49;;;;;;;;;;;19.00;99.90;;;;;;5094387;28;20318;-62
2021/08/20 06:04:15;;;;;;;;;;;19.00;99.90;;;;;;5094042;28;19904;-62
2021/08/20 06:06:40;;;;;;;;;;;19.00;99.90;;;;;;5094245;28;19911;-61
2021/08/20 06:09:06;;;;;;;;;;;19.00;99.90;;;;;;5094079;28;19904;-61
2021/08/20 06:11:32;;;;;;;;;;;19.00;99.90;;;;;;5094073;28;19927;-61
2021/08/20 06:13:57;;;;;;;;;;;19.10;99.90;;;;;;5093707;28;20273;-61
2021/08/20 06:16:23;;;;;;;;;;;19.10;99.90;;;;;;5094067;28;19919;-61
2021/08/20 06:18:48;;;;;;;;;;;19.20;99.90;;;;;;5093663;28;19982;-59
2021/08/20 06:21:14;;;;;;;;;;;19.20;99.90;;;;;;5093701;28;19904;-62
2021/08/20 06:23:40;;;;;;;;;;;19.30;99.90;;;;;;5093614;28;19904;-61
2021/08/20 06:26:05;;;;;;;;;;;19.40;99.90;;;;;;5093923;28;19912;-62
2021/08/20 06:28:31;;;;;;;;;;;19.40;99.90;;;;;;5093440;28;19930;-61
2021/08/20 06:31:02;;;;;;;;;;;19.30;99.90;;;;;;5093393;28;19957;-59
2021/08/20 06:33:27;;;;;;;;;;;19.60;99.90;;;;;;5093728;28;19907;-61
2021/08/20 06:35:53;;;;;;;;;;;19.50;99.90;;;;;;5093461;28;19973;-61
2021/08/20 06:38:18;;;;;;;;;;;19.40;99.90;;;;;;5093376;28;20410;-61
2021/08/20 06:40:44;;;;;;;;;;;19.40;99.90;;;;;;5093856;28;19911;-62
2021/08/20 06:43:10;;;;;;;;;;;19.50;99.90;;;;;;5093434;28;19958;-62
2021/08/20 06:45:35;;;;;;;;;;;19.50;99.90;;;;;;5093210;28;19911;-61
2021/08/20 06:48:01;;;;;;;;;;;19.60;99.90;;;;;;5093317;28;19908;-61
2021/08/20 06:50:26;;;;;;;;;;;19.60;99.90;;;;;;5092961;28;19911;-61
2021/08/20 06:52:52;;;;;;;;;;;19.60;99.90;;;;;;5093172;28;19912;-61
2021/08/20 06:55:19;;;;;;;;;;;19.60;99.90;;;;;;5093401;28;19911;-60
2021/08/20 06:57:45;;;;;;;;;;;19.70;99.90;;;;;;5092944;28;19904;-60
2021/08/20 07:00:11;;;;;;;;;;;19.80;99.90;;;;;;5092961;28;19908;-61
2021/08/20 07:02:40;;;;;;;;;;;20.10;99.90;;;;;;5092883;28;20412;-60
2021/08/20 07:05:06;;;;;;;;;;;20.10;99.90;;;;;;5093902;28;19911;-61
2021/08/20 07:07:33;;;;;;;;;;;20.10;99.90;;;;;;5092567;28;19904;-61
2021/08/20 07:09:59;;;;;;;;;;;20.40;99.90;;;;;;5093039;28;19916;-61
2021/08/20 07:12:24;;;;;;;;;;;20.50;99.90;;;;;;5093118;28;19911;-61
2021/08/20 07:14:50;;;;;;;;;;;20.50;99.90;;;;;;5093049;28;19994;-61
2021/08/20 07:17:15;;;;;;;;;;;20.50;99.90;;;;;;5093392;28;19907;-61
2021/08/20 07:19:41;;;;;;;;;;;20.60;99.90;;;;;;5092804;28;20222;-60
2021/08/20 07:22:06;;;;;;;;;;;20.80;99.90;;;;;;5092614;28;19904;-61
2021/08/20 07:24:32;;;;;;;;;;;20.90;99.90;;;;;;5092813;28;19984;-60
2021/08/20 07:26:57;;;;;;;;;;;20.90;99.90;;;;;;5092837;28;20320;-61
2021/08/20 07:29:23;;;;;;;;;;;20.90;99.90;;;;;;5092905;28;19988;-60
2021/08/20 07:31:48;;;;;;;;;;;21.10;99.90;;;;;;5092559;28;19915;-61
2021/08/20 07:34:14;;;;;;;;;;;21.20;99.90;;;;;;5092690;28;20292;-60
2021/08/20 07:36:39;;;;;;;;;;;21.30;99.90;;;;;;5092642;28;20404;-61
2021/08/20 07:39:05;;;;;;;;;;;21.40;99.90;;;;;;5092867;28;19914;-62
2021/08/20 07:41:30;;;;;;;;;;;21.50;99.90;;;;;;5091629;28;19908;-62
2021/08/20 07:43:56;;;;;;;;;;;21.70;99.90;;;;;;5092486;28;19904;-61
2021/08/20 07:46:21;;;;;;;;;;;21.90;99.90;;;;;;5092493;28;19994;-61
2021/08/20 07:48:47;;;;;;;;;;;22.10;99.90;;;;;;5092530;28;19908;-61
2021/08/20 07:51:12;;;;;;;;;;;22.10;99.90;;;;;;5092463;28;19908;-61
2021/08/20 07:53:38;;;;;;;;;;;22.00;99.90;;;;;;5092359;28;19991;-61
2021/08/20 07:56:03;;;;;;;;;;;21.90;99.90;;;;;;5092755;28;19904;-61
2021/08/20 07:58:29;;;;;;;;;;;21.80;99.90;;;;;;5092587;28;20003;-61
2021/08/20 08:00:54;;;;;;;;;;;21.60;99.90;;;;;;5092404;28;19995;-63
2021/08/20 08:03:20;;;;;;;;;;;21.50;99.90;;;;;;5093309;28;19904;-62
2021/08/20 08:05:46;;;;;;;;;;;21.50;99.90;;;;;;5094348;28;19911;-60
2021/08/20 08:08:11;;;;;;;;;;;21.50;99.90;;;;;;5092934;28;19950;-60
2021/08/20 08:10:37;;;;;;;;;;;21.50;99.90;;;;;;5092885;28;20090;-62
2021/08/20 08:13:02;;;;;;;;;;;21.50;99.90;;;;;;5091309;28;20387;-62
2021/08/20 08:15:28;;;;;;;;;;;21.50;99.90;;;;;;5093011;28;20399;-67
2021/08/20 08:17:55;;;;;;;;;;;21.50;99.90;;;;;;5092226;28;20082;-67
2021/08/20 08:20:21;;;;;;;;;;;21.50;99.90;;;;;;5095158;28;19908;-67
2021/08/20 08:22:46;;;;;;;;;;;21.60;99.90;;;;;;5095804;28;19904;-67
2021/08/20 08:25:12;;;;;;;;;;;21.80;99.90;;;;;;5095962;28;19927;-67
2021/08/20 08:27:48;;;;;;;;;;;21.90;99.90;;;;;;5096574;28;19926;-67
2021/08/20 08:30:13;;;;;;;;;;;22.00;99.90;;;;;;5096339;28;19904;-67
2021/08/20 08:32:39;;;;;;;;;;;22.20;99.90;;;;;;5096307;28;19965;-67
2021/08/20 08:35:05;;;;;;;;;;;22.40;99.90;;;;;;5094770;28;19904;-68
2021/08/20 08:37:30;;;;;;;;;;;22.80;99.90;;;;;;5096501;28;19904;-68
2021/08/20 08:39:56;;;;;;;;;;;23.90;99.90;;;;;;5096075;28;20304;-66
2021/08/20 08:42:21;;;;;;;;;;;25.20;99.30;;;;;;5095450;28;20260;-66
2021/08/20 08:44:47;;;;;;;;;;;26.80;97.20;;;;;;5095684;28;19919;-67
2021/08/20 08:47:14;;;;;;;;;;;28.90;94.10;;;;;;5095671;28;19915;-66
2021/08/20 08:49:40;;;;;;;;;;;30.80;91.10;;;;;;5095483;28;19911;-67
2021/08/20 08:52:06;;;;;;;;;;;32.30;86.30;;;;;;5095263;28;20276;-67
2021/08/20 08:54:31;;;;;;;;;;;33.50;80.80;;;;;;5095046;28;19908;-67
2021/08/20 08:56:57;;;;;;;;;;;34.00;76.40;;;;;;5095476;28;19904;-67
2021/08/20 08:59:22;;;;;;;;;;;34.70;74.60;;;;;;5095370;28;19908;-67
2021/08/20 09:01:49;;;;;;;;;;;33.50;74.50;;;;;;5095335;28;19904;-67
2021/08/20 09:04:19;;;;;;;;;;;33.50;74.70;;;;;;5095461;28;19977;-67
2021/08/20 09:06:49;;;;;;;;;;;33.90;73.60;;;;;;5095660;28;19904;-67
2021/08/20 09:09:15;;;;;;;;;;;35.00;71.10;;;;;;5095574;28;19910;-67
2021/08/20 09:11:42;;;;;;;;;;;36.10;67.50;;;;;;5095412;28;19904;-67
2021/08/20 09:14:08;;;;;;;;;;;36.70;65.30;;;;;;5093700;28;19994;-67
2021/08/20 09:16:40;;;;;;;;;;;36.90;64.10;;;;;;5095263;28;19943;-67
2021/08/20 09:19:10;;;;;;;;;;;37.60;62.80;;;;;;5095418;28;20257;-67
2021/08/20 09:21:36;;;;;;;;;;;37.90;61.40;;;;;;5095676;28;19964;-67
2021/08/20 09:24:01;;;;;;;;;;;38.60;60.10;;;;;;5095069;28;19908;-67
2021/08/20 09:26:27;;;;;;;;;;;38.50;59.20;;;;;;5095351;28;19914;-67
2021/08/20 09:28:53;;;;;;;;;;;38.80;58.20;;;;;;5093582;28;19904;-66
2021/08/20 09:31:22;;;;;;;;;;;38.60;57.80;;;;;;5094596;28;19904;-67
2021/08/20 09:33:49;;;;;;;;;;;38.60;57.30;;;;;;5094775;28;19908;-67
2021/08/20 09:36:14;;;;;;;;;;;39.10;56.40;;;;;;5094594;28;19904;-66
2021/08/20 09:38:41;;;;;;;;;;;39.40;55.70;;;;;;5094336;28;19926;-67
2021/08/20 09:41:16;;;;;;;;;;;39.80;55.00;;;;;;5094796;28;19904;-66
2021/08/20 09:43:42;;;;;;;;;;;39.80;54.40;;;;;;5094729;28;19904;-67
2021/08/20 09:46:12;;;;;;;;;;;39.70;54.20;;;;;;5093216;28;19908;-66
2021/08/20 09:48:46;;;;;;;;;;;39.50;54.50;;;;;;5094531;28;19904;-66
2021/08/20 09:51:30;;;;;;;;;;;39.80;54.00;;;;;;5094555;28;19990;-66
2021/08/20 09:54:00;;;;;;;;;;;39.90;53.60;;;;;;5092971;28;19911;-67
2021/08/20 09:56:27;;;;;;;;;;;40.20;53.10;;;;;;5094189;28;19919;-67
2021/08/20 09:58:58;;;;;;;;;;;40.90;52.40;;;;;;5093946;28;20003;-66
2021/08/20 10:01:24;;;;;;;;;;;41.10;51.80;;;;;;5094506;28;19904;-67
2021/08/20 10:03:50;;;;;;;;;;;41.00;51.10;;;;;;5094434;28;19915;-66
2021/08/20 10:06:16;;;;;;;;;;;41.10;50.30;;;;;;5094045;28;19998;-67
2021/08/20 10:08:42;;;;;;;;;;;40.60;51.30;;;;;;5094314;28;19927;-67
2021/08/20 10:11:08;;;;;;;;;;;40.70;50.50;;;;;;5094345;28;20301;-67
2021/08/20 10:13:34;;;;;;;;;;;41.00;50.40;;;;;;5093761;28;19911;-67
2021/08/20 10:16:01;;;;;;;;;;;40.70;50.20;;;;;;5094083;28;19927;-68
2021/08/20 10:18:28;;;;;;;;;;;40.50;49.80;;;;;;5094086;28;20353;-68
2021/08/20 10:20:55;;;;;;;;;;;40.20;50.10;;;;;;5093694;28;19904;-68
2021/08/20 10:23:20;;;;;;;;;;;39.80;49.80;;;;;;5093655;28;19907;-68
2021/08/20 10:25:46;;;;;;;;;;;38.40;51.30;;;;;;5093776;28;19904;-66
2021/08/20 10:28:15;;;;;;;;;;;38.30;51.00;;;;;;5093862;28;20221;-67
2021/08/20 10:30:43;;;;;;;;;;;38.20;50.60;;;;;;5093889;28;19904;-66
2021/08/20 10:33:09;;;;;;;;;;;38.60;50.50;;;;;;5093771;28;19904;-66
2021/08/20 10:35:50;;;;;;;;;;;39.10;49.90;;;;;;5093542;28;19913;-68
2021/08/20 10:38:42;;;;;;;;;;;39.40;49.70;;;;;;5093392;28;19947;-66
2021/08/20 10:41:17;;;;;;;;;;;39.90;49.50;;;;;;5092089;28;19904;-66
2021/08/20 10:43:48;;;;;;;;;;;40.10;49.50;;;;;;5092570;28;19912;-66
2021/08/20 10:49:17;;;;;;;;;;;39.90;49.00;;;;;;5093218;28;19904;-67
2021/08/20 10:51:49;;;;;;;;;;;40.30;48.00;;;;;;5093086;28;19994;-66
2021/08/20 10:54:26;;;;;;;;;;;40.50;48.20;;;;;;5093564;28;19904;-66
2021/08/20 10:56:52;;;;;;;;;;;40.30;48.30;;;;;;5093315;28;19949;-66
2021/08/20 10:59:43;;;;;;;;;;;40.10;49.10;;;;;;5093079;28;19994;-67
2021/08/20 11:02:17;;;;;;;;;;;40.60;48.60;;;;;;5091567;28;19904;-67
2021/08/20 11:05:02;;;;;;;;;;;40.50;48.00;;;;;;5091638;28;19999;-66
2021/08/20 11:07:36;;;;;;;;;;;40.30;48.20;;;;;;5093033;28;20029;-66
2021/08/20 11:10:07;;;;;;;;;;;40.10;48.40;;;;;;5092761;28;19904;-66
2021/08/20 11:12:37;;;;;;;;;;;38.70;49.50;;;;;;5092819;28;19904;-66
2021/08/20 11:15:18;;;;;;;;;;;36.40;50.90;;;;;;5092097;28;19904;-66
2021/08/20 11:17:48;;;;;;;;;;;34.30;53.60;;;;;;5091609;28;19996;-67
2021/08/20 11:20:23;;;;;;;;;;;32.60;55.90;;;;;;5092825;28;19908;-68
2021/08/20 11:23:07;;;;;;;;;;;31.40;57.90;;;;;;5092985;28;19911;-67
2021/08/20 11:25:41;;;;;;;;;;;30.50;58.80;;;;;;5093083;28;20276;-67
2021/08/20 11:28:08;;;;;;;;;;;29.80;60.60;;;;;;5092646;28;19904;-66
2021/08/20 11:30:38;;;;;;;;;;;29.20;61.80;;;;;;5092566;28;19904;-66
2021/08/20 11:33:14;;;;;;;;;;;28.80;62.50;;;;;;5092473;28;19904;-66
2021/08/20 11:35:41;;;;;;;;;;;28.20;62.90;;;;;;5092953;28;19960;-66
2021/08/20 11:38:06;;;;;;;;;;;28.00;63.10;;;;;;5092611;28;19912;-66
2021/08/20 11:40:33;;;;;;;;;;;27.70;63.50;;;;;;5092993;28;20340;-67
2021/08/20 11:43:09;;;;;;;;;;;27.50;63.90;;;;;;5092668;28;19917;-66
2021/08/20 11:45:35;;;;;;;;;;;27.40;64.90;;;;;;5092684;28;19957;-66
2021/08/20 11:48:01;;;;;;;;;;;27.30;65.20;;;;;;5092426;28;20283;-66
2021/08/20 11:50:28;;;;;;;;;;;27.30;65.20;;;;;;5092232;28;19992;-66
2021/08/20 11:52:53;;;;;;;;;;;27.40;65.30;;;;;;5092380;28;19916;-66
2021/08/20 11:55:19;;;;;;;;;;;27.30;64.90;;;;;;5095329;28;19908;-66
2021/08/20 11:57:45;;;;;;;;;;;27.10;62.90;;;;;;5096348;28;19904;-66
2021/08/20 12:00:12;;;;;;;;;;;27.10;63.80;;;;;;5096086;28;19908;-66
2021/08/20 12:02:37;;;;;;;;;;;27.00;62.70;;;;;;5096455;28;19948;-66
2021/08/20 12:05:15;;;;;;;;;;;27.00;63.70;;;;;;5095841;28;19927;-66
2021/08/20 12:07:40;;;;;;;;;;;27.00;62.60;;;;;;5096663;28;19904;-66
2021/08/20 12:10:08;;;;;;;;;;;27.00;61.60;;;;;;5096589;28;19904;-66
2021/08/20 12:12:34;;;;;;;;;;;27.00;62.80;;;;;;5095970;28;19961;-66
2021/08/20 12:15:00;;;;;;;;;;;26.90;63.10;;;;;;5096266;28;19915;-66
2021/08/20 12:17:28;;;;;;;;;;;26.90;63.20;;;;;;5096107;28;19911;-68
2021/08/20 12:19:56;;;;;;;;;;;27.10;62.30;;;;;;5095793;28;19908;-67
2021/08/20 12:22:32;;;;;;;;;;;27.10;63.00;;;;;;5095860;28;20128;-67
2021/08/20 12:24:57;;;;;;;;;;;27.10;63.60;;;;;;5095809;28;19942;-66
2021/08/20 12:27:25;;;;;;;;;;;27.20;63.00;;;;;;5095735;28;19904;-66
2021/08/20 12:29:59;;;;;;;;;;;27.10;62.90;;;;;;5095705;28;19904;-66
2021/08/20 12:32:26;;;;;;;;;;;27.10;63.40;;;;;;5096058;28;19920;-66
2021/08/20 12:34:58;;;;;;;;;;;27.00;61.30;;;;;;5096353;28;19904;-66
2021/08/20 12:37:24;;;;;;;;;;;27.00;61.90;;;;;;5096744;28;19904;-66
2021/08/20 12:40:00;;;;;;;;;;;26.90;61.40;;;;;;5095799;28;20336;-67
2021/08/20 12:42:27;;;;;;;;;;;26.90;61.80;;;;;;5095881;28;20337;-67
2021/08/20 12:45:05;;;;;;;;;;;26.90;61.90;;;;;;5095567;28;20335;-67
2021/08/20 12:47:31;;;;;;;;;;;27.00;62.20;;;;;;5095449;28;19904;-67
2021/08/20 12:49:59;;;;;;;;;;;26.90;61.40;;;;;;5095641;28;19904;-67
2021/08/20 12:52:25;;;;;;;;;;;26.80;62.70;;;;;;5095414;28;19963;-67
2021/08/20 12:54:51;;;;;;;;;;;26.80;62.00;;;;;;5095254;28;19988;-66
2021/08/20 12:57:18;;;;;;;;;;;26.90;62.80;;;;;;5095434;28;19904;-66
2021/08/20 12:59:44;;;;;;;;;;;26.80;62.40;;;;;;5095418;28;19915;-66
2021/08/20 13:02:10;;;;;;;;;;;26.90;62.90;;;;;;5095176;28;19908;-66
2021/08/20 13:04:35;;;;;;;;;;;26.80;61.40;;;;;;5095182;28;20368;-66
2021/08/20 13:07:01;;;;;;;;;;;26.90;62.60;;;;;;5094302;28;19904;-66
2021/08/20 13:09:26;;;;;;;;;;;27.00;62.30;;;;;;5095255;28;19904;-66
2021/08/20 13:11:52;;;;;;;;;;;27.00;63.00;;;;;;5095113;28;19904;-66
2021/08/20 13:14:17;;;;;;;;;;;27.10;61.70;;;;;;5095441;28;19911;-66
2021/08/20 13:16:43;;;;;;;;;;;27.00;62.00;;;;;;5095165;28;20013;-66
2021/08/20 13:19:08;;;;;;;;;;;27.00;60.90;;;;;;5094933;28;19947;-66
2021/08/20 13:21:34;;;;;;;;;;;27.00;62.50;;;;;;5094741;28;20329;-66
2021/08/20 13:23:59;;;;;;;;;;;27.00;61.60;;;;;;5094736;28;19904;-67
2021/08/20 13:26:26;;;;;;;;;;;27.10;63.10;;;;;;5095227;28;19904;-67
2021/08/20 13:28:52;;;;;;;;;;;27.10;63.70;;;;;;5093437;28;19904;-67
2021/08/20 13:31:17;;;;;;;;;;;27.10;63.60;;;;;;5093583;28;20405;-67
2021/08/20 13:33:43;;;;;;;;;;;27.10;60.90;;;;;;5094800;28;19904;-66
2021/08/20 13:36:08;;;;;;;;;;;27.10;62.20;;;;;;5094507;28;19904;-66
2021/08/20 13:38:34;;;;;;;;;;;27.00;64.50;;;;;;5094506;28;19963;-66
2021/08/20 13:41:00;;;;;;;;;;;27.10;64.90;;;;;;5094534;28;19939;-66
2021/08/20 13:43:27;;;;;;;;;;;27.10;65.30;;;;;;5094467;28;19904;-66
2021/08/20 13:45:52;;;;;;;;;;;27.10;65.20;;;;;;5093112;28;20334;-66
2021/08/20 13:48:18;;;;;;;;;;;27.00;65.60;;;;;;5094531;28;19904;-66
2021/08/20 13:50:44;;;;;;;;;;;27.00;66.20;;;;;;5094375;28;19904;-67
2021/08/20 13:53:13;;;;;;;;;;;26.90;65.60;;;;;;5094710;28;19903;-67
2021/08/20 13:55:39;;;;;;;;;;;26.80;65.20;;;;;;5094555;28;19904;-67
2021/08/20 13:58:05;;;;;;;;;;;26.70;64.80;;;;;;5092780;28;19904;-67
2021/08/20 14:00:31;;;;;;;;;;;26.70;65.30;;;;;;5094492;28;19908;-68
2021/08/20 14:02:56;;;;;;;;;;;26.80;65.50;;;;;;5094537;28;19953;-68
2021/08/20 14:05:22;;;;;;;;;;;26.70;65.60;;;;;;5094154;28;19908;-66
2021/08/20 14:07:47;;;;;;;;;;;26.70;65.10;;;;;;5094375;28;19908;-68
2021/08/20 14:10:13;;;;;;;;;;;26.70;65.30;;;;;;5093652;28;19999;-68
2021/08/20 14:12:39;;;;;;;;;;;26.70;66.10;;;;;;5094149;28;20361;-67
2021/08/20 14:15:05;;;;;;;;;;;26.70;65.50;;;;;;5093945;28;19904;-66
2021/08/20 14:17:34;;;;;;;;;;;26.80;65.90;;;;;;5094592;28;19927;-63